sensor_id;sensor_type;location;lat;lon;timestamp;P1;durP1;ratioP1;P2;durP2;ratioP2
30048;SDS011;16879;50.852;15.602;2022-11-06T00:00:41;12.95;;;6.90;;
30048;SDS011;16879;50.852;15.602;2022-11-06T00:03:09;12.23;;;6.72;;
30048;SDS011;16879;50.852;15.602;2022-11-06T00:05:38;18.70;;;10.50;;
30048;SDS011;16879;50.852;15.602;2022-11-06T00:08:28;25.38;;;16.10;;
30048;SDS011;16879;50.852;15.602;2022-11-06T00:11:12;29.75;;;19.02;;
30048;SDS011;16879;50.852;15.602;2022-11-06T00:13:39;36.13;;;23.50;;
30048;SDS011;16879;50.852;15.602;2022-11-06T00:16:07;40.55;;;24.10;;
30048;SDS011;16879;50.852;15.602;2022-11-06T00:18:34;47.40;;;29.90;;
30048;SDS011;16879;50.852;15.602;2022-11-06T00:21:08;56.15;;;34.05;;
30048;SDS011;16879;50.852;15.602;2022-11-06T00:23:39;52.03;;;30.10;;
30048;SDS011;16879;50.852;15.602;2022-11-06T00:26:13;46.63;;;29.95;;
30048;SDS011;16879;50.852;15.602;2022-11-06T00:28:40;50.28;;;29.38;;
30048;SDS011;16879;50.852;15.602;2022-11-06T00:31:08;43.88;;;27.23;;
30048;SDS011;16879;50.852;15.602;2022-11-06T00:33:35;49.00;;;29.25;;
30048;SDS011;16879;50.852;15.602;2022-11-06T00:36:02;44.17;;;27.85;;
30048;SDS011;16879;50.852;15.602;2022-11-06T00:38:30;45.22;;;28.45;;
30048;SDS011;16879;50.852;15.602;2022-11-06T00:40:56;60.03;;;31.50;;
30048;SDS011;16879;50.852;15.602;2022-11-06T00:43:26;53.83;;;33.45;;
30048;SDS011;16879;50.852;15.602;2022-11-06T00:45:52;52.88;;;29.23;;
30048;SDS011;16879;50.852;15.602;2022-11-06T00:48:18;54.88;;;31.33;;
30048;SDS011;16879;50.852;15.602;2022-11-06T00:50:44;59.30;;;32.35;;
30048;SDS011;16879;50.852;15.602;2022-11-06T00:53:10;62.55;;;32.67;;
30048;SDS011;16879;50.852;15.602;2022-11-06T00:55:36;59.83;;;35.05;;
30048;SDS011;16879;50.852;15.602;2022-11-06T00:58:02;69.78;;;37.53;;
30048;SDS011;16879;50.852;15.602;2022-11-06T01:00:28;59.90;;;32.95;;
30048;SDS011;16879;50.852;15.602;2022-11-06T01:02:54;55.53;;;33.83;;
30048;SDS011;16879;50.852;15.602;2022-11-06T01:05:21;49.72;;;29.98;;
30048;SDS011;16879;50.852;15.602;2022-11-06T01:07:46;44.28;;;27.98;;
30048;SDS011;16879;50.852;15.602;2022-11-06T01:10:12;50.60;;;30.75;;
30048;SDS011;16879;50.852;15.602;2022-11-06T01:12:39;47.28;;;30.48;;
30048;SDS011;16879;50.852;15.602;2022-11-06T01:15:05;49.58;;;27.48;;
30048;SDS011;16879;50.852;15.602;2022-11-06T01:17:31;51.13;;;29.30;;
30048;SDS011;16879;50.852;15.602;2022-11-06T01:19:57;47.92;;;27.15;;
30048;SDS011;16879;50.852;15.602;2022-11-06T01:22:23;54.70;;;28.85;;
30048;SDS011;16879;50.852;15.602;2022-11-06T01:24:49;44.45;;;25.25;;
30048;SDS011;16879;50.852;15.602;2022-11-06T01:27:14;52.50;;;24.80;;
30048;SDS011;16879;50.852;15.602;2022-11-06T01:29:40;35.13;;;21.23;;
30048;SDS011;16879;50.852;15.602;2022-11-06T01:32:06;39.67;;;22.40;;
30048;SDS011;16879;50.852;15.602;2022-11-06T01:34:32;50.47;;;20.92;;
30048;SDS011;16879;50.852;15.602;2022-11-06T01:36:58;37.25;;;21.30;;
30048;SDS011;16879;50.852;15.602;2022-11-06T01:39:24;37.28;;;21.75;;
30048;SDS011;16879;50.852;15.602;2022-11-06T01:41:50;37.60;;;22.77;;
30048;SDS011;16879;50.852;15.602;2022-11-06T01:47:24;71.65;;;26.20;;
30048;SDS011;16879;50.852;15.602;2022-11-06T01:49:52;47.67;;;23.75;;
30048;SDS011;16879;50.852;15.602;2022-11-06T01:52:21;34.20;;;19.48;;
30048;SDS011;16879;50.852;15.602;2022-11-06T01:54:50;34.67;;;20.23;;
30048;SDS011;16879;50.852;15.602;2022-11-06T01:57:19;35.45;;;19.65;;
30048;SDS011;16879;50.852;15.602;2022-11-06T01:59:46;38.35;;;20.58;;
30048;SDS011;16879;50.852;15.602;2022-11-06T02:02:13;28.67;;;18.13;;
30048;SDS011;16879;50.852;15.602;2022-11-06T02:04:42;32.40;;;19.73;;
30048;SDS011;16879;50.852;15.602;2022-11-06T02:07:09;40.42;;;21.55;;
30048;SDS011;16879;50.852;15.602;2022-11-06T02:09:36;45.05;;;22.77;;
30048;SDS011;16879;50.852;15.602;2022-11-06T02:25:37;26.70;;;16.73;;
30048;SDS011;16879;50.852;15.602;2022-11-06T02:28:34;24.45;;;16.20;;
30048;SDS011;16879;50.852;15.602;2022-11-06T02:31:09;32.53;;;18.23;;
30048;SDS011;16879;50.852;15.602;2022-11-06T02:33:41;36.90;;;18.13;;
30048;SDS011;16879;50.852;15.602;2022-11-06T02:36:14;27.10;;;16.35;;
30048;SDS011;16879;50.852;15.602;2022-11-06T02:38:45;22.45;;;15.13;;
30048;SDS011;16879;50.852;15.602;2022-11-06T02:41:24;31.77;;;18.35;;
30048;SDS011;16879;50.852;15.602;2022-11-06T02:43:56;25.48;;;15.75;;
30048;SDS011;16879;50.852;15.602;2022-11-06T02:46:38;24.90;;;15.48;;
30048;SDS011;16879;50.852;15.602;2022-11-06T02:51:52;28.88;;;16.98;;
30048;SDS011;16879;50.852;15.602;2022-11-06T02:54:34;27.80;;;17.02;;
30048;SDS011;16879;50.852;15.602;2022-11-06T02:57:04;42.88;;;20.58;;
30048;SDS011;16879;50.852;15.602;2022-11-06T03:02:23;39.58;;;17.33;;
30048;SDS011;16879;50.852;15.602;2022-11-06T03:05:03;29.58;;;17.85;;
30048;SDS011;16879;50.852;15.602;2022-11-06T03:07:35;28.95;;;16.15;;
30048;SDS011;16879;50.852;15.602;2022-11-06T03:10:06;40.35;;;20.23;;
30048;SDS011;16879;50.852;15.602;2022-11-06T03:12:38;28.55;;;16.98;;
30048;SDS011;16879;50.852;15.602;2022-11-06T03:15:14;31.75;;;20.73;;
30048;SDS011;16879;50.852;15.602;2022-11-06T03:17:49;37.42;;;19.48;;
30048;SDS011;16879;50.852;15.602;2022-11-06T03:20:39;37.97;;;20.58;;
30048;SDS011;16879;50.852;15.602;2022-11-06T03:25:59;47.90;;;22.58;;
30048;SDS011;16879;50.852;15.602;2022-11-06T03:28:53;44.70;;;23.08;;
30048;SDS011;16879;50.852;15.602;2022-11-06T03:32:25;43.25;;;20.40;;
30048;SDS011;16879;50.852;15.602;2022-11-06T03:34:41;45.25;;;22.58;;
30048;SDS011;16879;50.852;15.602;2022-11-06T03:37:35;31.58;;;18.27;;
30048;SDS011;16879;50.852;15.602;2022-11-06T03:40:07;34.25;;;19.77;;
30048;SDS011;16879;50.852;15.602;2022-11-06T03:42:37;41.53;;;22.48;;
30048;SDS011;16879;50.852;15.602;2022-11-06T03:45:06;34.75;;;18.35;;
30048;SDS011;16879;50.852;15.602;2022-11-06T03:47:40;35.10;;;19.00;;
30048;SDS011;16879;50.852;15.602;2022-11-06T03:50:21;27.08;;;15.95;;
30048;SDS011;16879;50.852;15.602;2022-11-06T03:53:12;38.05;;;18.38;;
30048;SDS011;16879;50.852;15.602;2022-11-06T03:55:54;29.95;;;17.00;;
30048;SDS011;16879;50.852;15.602;2022-11-06T03:58:32;32.45;;;19.02;;
30048;SDS011;16879;50.852;15.602;2022-11-06T04:01:06;24.50;;;15.30;;
30048;SDS011;16879;50.852;15.602;2022-11-06T04:03:36;39.65;;;20.98;;
30048;SDS011;16879;50.852;15.602;2022-11-06T04:06:26;35.22;;;17.25;;
30048;SDS011;16879;50.852;15.602;2022-11-06T04:09:01;47.85;;;20.90;;
30048;SDS011;16879;50.852;15.602;2022-11-06T04:11:48;51.67;;;22.38;;
30048;SDS011;16879;50.852;15.602;2022-11-06T04:14:35;46.97;;;19.98;;
30048;SDS011;16879;50.852;15.602;2022-11-06T04:17:04;43.85;;;21.92;;
30048;SDS011;16879;50.852;15.602;2022-11-06T04:19:34;50.55;;;25.65;;
30048;SDS011;16879;50.852;15.602;2022-11-06T04:30:38;44.72;;;22.33;;
30048;SDS011;16879;50.852;15.602;2022-11-06T04:35:58;46.00;;;21.60;;
30048;SDS011;16879;50.852;15.602;2022-11-06T04:39:08;46.85;;;21.98;;
30048;SDS011;16879;50.852;15.602;2022-11-06T04:41:40;41.97;;;22.35;;
30048;SDS011;16879;50.852;15.602;2022-11-06T04:44:20;62.58;;;25.88;;
30048;SDS011;16879;50.852;15.602;2022-11-06T04:46:52;44.22;;;20.55;;
30048;SDS011;16879;50.852;15.602;2022-11-06T04:49:21;45.50;;;21.52;;
30048;SDS011;16879;50.852;15.602;2022-11-06T04:51:48;46.67;;;23.73;;
30048;SDS011;16879;50.852;15.602;2022-11-06T04:54:15;46.17;;;20.52;;
30048;SDS011;16879;50.852;15.602;2022-11-06T04:56:41;54.42;;;25.33;;
30048;SDS011;16879;50.852;15.602;2022-11-06T04:59:08;49.28;;;23.00;;
30048;SDS011;16879;50.852;15.602;2022-11-06T05:01:39;39.08;;;21.45;;
30048;SDS011;16879;50.852;15.602;2022-11-06T05:04:05;41.03;;;21.98;;
30048;SDS011;16879;50.852;15.602;2022-11-06T05:06:31;43.80;;;24.35;;
30048;SDS011;16879;50.852;15.602;2022-11-06T05:08:56;40.53;;;18.85;;
30048;SDS011;16879;50.852;15.602;2022-11-06T05:11:23;37.35;;;20.33;;
30048;SDS011;16879;50.852;15.602;2022-11-06T05:13:49;37.47;;;18.98;;
30048;SDS011;16879;50.852;15.602;2022-11-06T05:16:15;42.50;;;19.08;;
30048;SDS011;16879;50.852;15.602;2022-11-06T05:18:41;24.90;;;16.20;;
30048;SDS011;16879;50.852;15.602;2022-11-06T05:21:06;28.17;;;16.27;;
30048;SDS011;16879;50.852;15.602;2022-11-06T05:23:51;34.92;;;17.95;;
30048;SDS011;16879;50.852;15.602;2022-11-06T05:26:17;31.60;;;16.80;;
30048;SDS011;16879;50.852;15.602;2022-11-06T05:28:43;36.20;;;15.50;;
30048;SDS011;16879;50.852;15.602;2022-11-06T05:31:09;28.67;;;15.65;;
30048;SDS011;16879;50.852;15.602;2022-11-06T05:33:35;36.05;;;17.05;;
30048;SDS011;16879;50.852;15.602;2022-11-06T05:36:02;27.00;;;13.10;;
30048;SDS011;16879;50.852;15.602;2022-11-06T05:38:29;29.88;;;14.70;;
30048;SDS011;16879;50.852;15.602;2022-11-06T05:40:56;39.67;;;16.90;;
30048;SDS011;16879;50.852;15.602;2022-11-06T05:43:22;33.65;;;14.10;;
30048;SDS011;16879;50.852;15.602;2022-11-06T05:45:47;30.88;;;14.55;;
30048;SDS011;16879;50.852;15.602;2022-11-06T05:48:13;28.55;;;15.32;;
30048;SDS011;16879;50.852;15.602;2022-11-06T05:50:39;30.75;;;16.35;;
30048;SDS011;16879;50.852;15.602;2022-11-06T05:53:05;37.95;;;19.67;;
30048;SDS011;16879;50.852;15.602;2022-11-06T05:55:31;27.10;;;14.38;;
30048;SDS011;16879;50.852;15.602;2022-11-06T05:57:56;29.17;;;15.30;;
30048;SDS011;16879;50.852;15.602;2022-11-06T06:00:23;29.80;;;16.42;;
30048;SDS011;16879;50.852;15.602;2022-11-06T06:02:49;29.63;;;14.90;;
30048;SDS011;16879;50.852;15.602;2022-11-06T06:05:15;30.13;;;16.17;;
30048;SDS011;16879;50.852;15.602;2022-11-06T06:07:41;31.67;;;15.98;;
30048;SDS011;16879;50.852;15.602;2022-11-06T06:10:07;34.72;;;16.30;;
30048;SDS011;16879;50.852;15.602;2022-11-06T06:12:34;32.70;;;17.50;;
30048;SDS011;16879;50.852;15.602;2022-11-06T06:15:00;42.00;;;20.35;;
30048;SDS011;16879;50.852;15.602;2022-11-06T06:17:27;39.17;;;17.55;;
30048;SDS011;16879;50.852;15.602;2022-11-06T06:19:53;44.55;;;21.27;;
30048;SDS011;16879;50.852;15.602;2022-11-06T06:22:18;41.05;;;21.33;;
30048;SDS011;16879;50.852;15.602;2022-11-06T06:24:44;31.00;;;16.20;;
30048;SDS011;16879;50.852;15.602;2022-11-06T06:27:10;32.85;;;17.40;;
30048;SDS011;16879;50.852;15.602;2022-11-06T06:29:36;40.95;;;21.23;;
30048;SDS011;16879;50.852;15.602;2022-11-06T06:32:02;32.20;;;17.88;;
30048;SDS011;16879;50.852;15.602;2022-11-06T06:34:28;35.85;;;19.90;;
30048;SDS011;16879;50.852;15.602;2022-11-06T06:36:54;32.53;;;17.35;;
30048;SDS011;16879;50.852;15.602;2022-11-06T06:39:20;37.35;;;20.20;;
30048;SDS011;16879;50.852;15.602;2022-11-06T06:41:47;34.90;;;18.23;;
30048;SDS011;16879;50.852;15.602;2022-11-06T06:44:13;36.05;;;16.95;;
30048;SDS011;16879;50.852;15.602;2022-11-06T06:46:40;35.30;;;17.35;;
30048;SDS011;16879;50.852;15.602;2022-11-06T06:49:06;36.10;;;19.35;;
30048;SDS011;16879;50.852;15.602;2022-11-06T06:51:32;25.60;;;15.35;;
30048;SDS011;16879;50.852;15.602;2022-11-06T06:53:58;47.95;;;16.50;;
30048;SDS011;16879;50.852;15.602;2022-11-06T06:56:24;54.30;;;18.70;;
30048;SDS011;16879;50.852;15.602;2022-11-06T06:58:53;50.85;;;18.70;;
30048;SDS011;16879;50.852;15.602;2022-11-06T07:01:19;42.92;;;17.05;;
30048;SDS011;16879;50.852;15.602;2022-11-06T07:03:45;32.80;;;17.35;;
30048;SDS011;16879;50.852;15.602;2022-11-06T07:06:11;28.80;;;15.82;;
30048;SDS011;16879;50.852;15.602;2022-11-06T07:08:37;30.83;;;16.83;;
30048;SDS011;16879;50.852;15.602;2022-11-06T07:11:07;80.40;;;15.82;;
30048;SDS011;16879;50.852;15.602;2022-11-06T07:16:31;33.38;;;14.45;;
30048;SDS011;16879;50.852;15.602;2022-11-06T07:18:57;27.17;;;12.95;;
30048;SDS011;16879;50.852;15.602;2022-11-06T07:21:23;232.35;;;28.30;;
30048;SDS011;16879;50.852;15.602;2022-11-06T07:23:49;68.70;;;20.15;;
30048;SDS011;16879;50.852;15.602;2022-11-06T07:26:15;64.25;;;17.73;;
30048;SDS011;16879;50.852;15.602;2022-11-06T07:28:41;110.57;;;20.45;;
30048;SDS011;16879;50.852;15.602;2022-11-06T07:31:07;125.25;;;23.30;;
30048;SDS011;16879;50.852;15.602;2022-11-06T07:33:36;132.63;;;22.30;;
30048;SDS011;16879;50.852;15.602;2022-11-06T07:36:06;21.20;;;12.13;;
30048;SDS011;16879;50.852;15.602;2022-11-06T07:38:33;54.83;;;19.33;;
30048;SDS011;16879;50.852;15.602;2022-11-06T07:41:00;100.00;;;22.35;;
30048;SDS011;16879;50.852;15.602;2022-11-06T07:43:27;85.55;;;19.58;;
30048;SDS011;16879;50.852;15.602;2022-11-06T07:45:53;41.42;;;18.38;;
30048;SDS011;16879;50.852;15.602;2022-11-06T07:48:22;49.38;;;17.73;;
30048;SDS011;16879;50.852;15.602;2022-11-06T07:50:47;34.42;;;14.70;;
30048;SDS011;16879;50.852;15.602;2022-11-06T07:53:13;43.78;;;17.20;;
30048;SDS011;16879;50.852;15.602;2022-11-06T07:55:46;31.08;;;16.40;;
30048;SDS011;16879;50.852;15.602;2022-11-06T07:58:15;53.03;;;22.92;;
30048;SDS011;16879;50.852;15.602;2022-11-06T08:00:48;43.30;;;21.17;;
30048;SDS011;16879;50.852;15.602;2022-11-06T08:05:41;47.58;;;25.05;;
30048;SDS011;16879;50.852;15.602;2022-11-06T08:08:07;71.38;;;38.58;;
30048;SDS011;16879;50.852;15.602;2022-11-06T08:10:34;57.45;;;33.58;;
30048;SDS011;16879;50.852;15.602;2022-11-06T08:13:04;73.35;;;38.67;;
30048;SDS011;16879;50.852;15.602;2022-11-06T08:15:31;104.65;;;56.58;;
30048;SDS011;16879;50.852;15.602;2022-11-06T08:17:58;77.45;;;38.92;;
30048;SDS011;16879;50.852;15.602;2022-11-06T08:20:24;120.00;;;60.88;;
30048;SDS011;16879;50.852;15.602;2022-11-06T08:22:56;95.03;;;50.28;;
30048;SDS011;16879;50.852;15.602;2022-11-06T08:25:25;78.75;;;39.05;;
30048;SDS011;16879;50.852;15.602;2022-11-06T08:27:59;75.97;;;40.72;;
30048;SDS011;16879;50.852;15.602;2022-11-06T08:30:27;90.78;;;49.15;;
30048;SDS011;16879;50.852;15.602;2022-11-06T08:33:01;118.93;;;61.20;;
30048;SDS011;16879;50.852;15.602;2022-11-06T08:35:28;104.28;;;51.20;;
30048;SDS011;16879;50.852;15.602;2022-11-06T08:37:54;85.30;;;43.10;;
30048;SDS011;16879;50.852;15.602;2022-11-06T08:40:21;92.03;;;45.60;;
30048;SDS011;16879;50.852;15.602;2022-11-06T08:42:47;95.93;;;43.70;;
30048;SDS011;16879;50.852;15.602;2022-11-06T08:45:14;80.53;;;36.38;;
30048;SDS011;16879;50.852;15.602;2022-11-06T08:47:40;155.05;;;43.63;;
30048;SDS011;16879;50.852;15.602;2022-11-06T08:50:06;89.28;;;36.40;;
30048;SDS011;16879;50.852;15.602;2022-11-06T08:52:32;69.50;;;32.83;;
30048;SDS011;16879;50.852;15.602;2022-11-06T08:54:58;91.50;;;41.88;;
30048;SDS011;16879;50.852;15.602;2022-11-06T08:57:27;68.03;;;32.15;;
30048;SDS011;16879;50.852;15.602;2022-11-06T08:59:55;51.38;;;29.55;;
30048;SDS011;16879;50.852;15.602;2022-11-06T09:02:20;73.78;;;42.42;;
30048;SDS011;16879;50.852;15.602;2022-11-06T09:04:50;81.75;;;48.15;;
30048;SDS011;16879;50.852;15.602;2022-11-06T09:07:15;81.45;;;52.53;;
30048;SDS011;16879;50.852;15.602;2022-11-06T09:09:42;63.50;;;40.97;;
30048;SDS011;16879;50.852;15.602;2022-11-06T09:12:08;64.80;;;39.92;;
30048;SDS011;16879;50.852;15.602;2022-11-06T09:14:34;74.57;;;44.10;;
30048;SDS011;16879;50.852;15.602;2022-11-06T09:17:00;69.60;;;39.70;;
30048;SDS011;16879;50.852;15.602;2022-11-06T09:19:27;66.47;;;38.03;;
30048;SDS011;16879;50.852;15.602;2022-11-06T09:21:53;50.97;;;27.05;;
30048;SDS011;16879;50.852;15.602;2022-11-06T09:24:20;47.85;;;30.92;;
30048;SDS011;16879;50.852;15.602;2022-11-06T09:26:46;50.15;;;33.58;;
30048;SDS011;16879;50.852;15.602;2022-11-06T09:29:12;47.65;;;29.73;;
30048;SDS011;16879;50.852;15.602;2022-11-06T09:31:38;46.30;;;30.45;;
30048;SDS011;16879;50.852;15.602;2022-11-06T09:34:04;50.88;;;31.83;;
30048;SDS011;16879;50.852;15.602;2022-11-06T09:36:30;49.90;;;30.00;;
30048;SDS011;16879;50.852;15.602;2022-11-06T09:38:56;51.65;;;32.28;;
30048;SDS011;16879;50.852;15.602;2022-11-06T09:41:29;51.22;;;31.75;;
30048;SDS011;16879;50.852;15.602;2022-11-06T09:47:18;38.75;;;23.23;;
30048;SDS011;16879;50.852;15.602;2022-11-06T09:49:53;35.95;;;21.85;;
30048;SDS011;16879;50.852;15.602;2022-11-06T09:52:43;37.05;;;22.92;;
30048;SDS011;16879;50.852;15.602;2022-11-06T09:55:25;32.10;;;19.73;;
30048;SDS011;16879;50.852;15.602;2022-11-06T09:58:04;26.10;;;17.77;;
30048;SDS011;16879;50.852;15.602;2022-11-06T10:00:50;28.55;;;18.38;;
30048;SDS011;16879;50.852;15.602;2022-11-06T10:03:39;27.63;;;19.40;;
30048;SDS011;16879;50.852;15.602;2022-11-06T10:06:19;25.00;;;16.80;;
30048;SDS011;16879;50.852;15.602;2022-11-06T10:08:46;22.20;;;14.23;;
30048;SDS011;16879;50.852;15.602;2022-11-06T10:13:53;24.17;;;16.02;;
30048;SDS011;16879;50.852;15.602;2022-11-06T10:21:26;20.33;;;12.80;;
30048;SDS011;16879;50.852;15.602;2022-11-06T10:24:40;27.45;;;18.00;;
30048;SDS011;16879;50.852;15.602;2022-11-06T10:30:10;19.10;;;13.55;;
30048;SDS011;16879;50.852;15.602;2022-11-06T10:35:37;20.48;;;14.38;;
30048;SDS011;16879;50.852;15.602;2022-11-06T10:40:59;18.42;;;12.43;;
30048;SDS011;16879;50.852;15.602;2022-11-06T10:43:30;18.17;;;12.30;;
30048;SDS011;16879;50.852;15.602;2022-11-06T10:46:11;15.35;;;9.73;;
30048;SDS011;16879;50.852;15.602;2022-11-06T10:48:42;15.00;;;10.07;;
30048;SDS011;16879;50.852;15.602;2022-11-06T10:59:33;11.35;;;8.07;;
30048;SDS011;16879;50.852;15.602;2022-11-06T11:01:59;14.43;;;9.25;;
30048;SDS011;16879;50.852;15.602;2022-11-06T11:04:25;15.05;;;10.18;;
30048;SDS011;16879;50.852;15.602;2022-11-06T11:06:51;12.23;;;8.82;;
30048;SDS011;16879;50.852;15.602;2022-11-06T11:09:31;13.73;;;9.60;;
30048;SDS011;16879;50.852;15.602;2022-11-06T11:11:58;16.20;;;9.80;;
30048;SDS011;16879;50.852;15.602;2022-11-06T11:14:25;16.00;;;11.68;;
30048;SDS011;16879;50.852;15.602;2022-11-06T11:16:58;15.48;;;10.38;;
30048;SDS011;16879;50.852;15.602;2022-11-06T11:19:37;12.48;;;9.55;;
30048;SDS011;16879;50.852;15.602;2022-11-06T11:27:35;17.45;;;10.73;;
30048;SDS011;16879;50.852;15.602;2022-11-06T11:30:18;21.83;;;12.82;;
30048;SDS011;16879;50.852;15.602;2022-11-06T11:32:48;16.92;;;12.20;;
30048;SDS011;16879;50.852;15.602;2022-11-06T11:35:16;18.25;;;11.25;;
30048;SDS011;16879;50.852;15.602;2022-11-06T11:37:50;16.67;;;11.32;;
30048;SDS011;16879;50.852;15.602;2022-11-06T11:43:14;21.90;;;11.23;;
30048;SDS011;16879;50.852;15.602;2022-11-06T11:46:16;11.60;;;8.93;;
30048;SDS011;16879;50.852;15.602;2022-11-06T11:48:45;33.28;;;15.25;;
30048;SDS011;16879;50.852;15.602;2022-11-06T11:53:50;12.05;;;6.63;;
30048;SDS011;16879;50.852;15.602;2022-11-06T11:56:18;10.52;;;6.90;;
30048;SDS011;16879;50.852;15.602;2022-11-06T11:58:52;12.23;;;9.20;;
30048;SDS011;16879;50.852;15.602;2022-11-06T12:01:39;11.77;;;8.65;;
30048;SDS011;16879;50.852;15.602;2022-11-06T12:04:14;15.43;;;9.50;;
30048;SDS011;16879;50.852;15.602;2022-11-06T12:06:49;8.18;;;6.85;;
30048;SDS011;16879;50.852;15.602;2022-11-06T12:09:15;12.07;;;8.32;;
30048;SDS011;16879;50.852;15.602;2022-11-06T12:11:43;22.98;;;11.52;;
30048;SDS011;16879;50.852;15.602;2022-11-06T12:14:16;14.82;;;9.27;;
30048;SDS011;16879;50.852;15.602;2022-11-06T12:16:49;12.45;;;7.88;;
30048;SDS011;16879;50.852;15.602;2022-11-06T12:19:17;9.15;;;5.93;;
30048;SDS011;16879;50.852;15.602;2022-11-06T12:21:48;10.23;;;6.07;;
30048;SDS011;16879;50.852;15.602;2022-11-06T12:28:36;6.63;;;5.45;;
30048;SDS011;16879;50.852;15.602;2022-11-06T12:31:08;9.00;;;5.13;;
30048;SDS011;16879;50.852;15.602;2022-11-06T12:33:43;11.32;;;6.70;;
30048;SDS011;16879;50.852;15.602;2022-11-06T12:36:16;10.75;;;5.93;;
30048;SDS011;16879;50.852;15.602;2022-11-06T12:41:26;5.25;;;4.15;;
30048;SDS011;16879;50.852;15.602;2022-11-06T12:43:53;5.80;;;3.90;;
30048;SDS011;16879;50.852;15.602;2022-11-06T13:05:58;4.38;;;3.97;;
30048;SDS011;16879;50.852;15.602;2022-11-06T13:08:41;4.55;;;4.25;;
30048;SDS011;16879;50.852;15.602;2022-11-06T13:14:13;9.27;;;7.38;;
30048;SDS011;16879;50.852;15.602;2022-11-06T13:19:52;23.42;;;13.63;;
30048;SDS011;16879;50.852;15.602;2022-11-06T13:22:47;26.00;;;14.43;;
30048;SDS011;16879;50.852;15.602;2022-11-06T13:25:19;20.05;;;12.38;;
30048;SDS011;16879;50.852;15.602;2022-11-06T13:27:51;15.25;;;9.02;;
30048;SDS011;16879;50.852;15.602;2022-11-06T13:30:30;12.35;;;7.45;;
30048;SDS011;16879;50.852;15.602;2022-11-06T13:35:36;8.13;;;5.72;;
30048;SDS011;16879;50.852;15.602;2022-11-06T13:38:06;7.53;;;5.82;;
30048;SDS011;16879;50.852;15.602;2022-11-06T13:40:43;7.47;;;5.40;;
30048;SDS011;16879;50.852;15.602;2022-11-06T13:48:34;13.77;;;6.85;;
30048;SDS011;16879;50.852;15.602;2022-11-06T13:51:05;21.15;;;15.07;;
30048;SDS011;16879;50.852;15.602;2022-11-06T13:54:09;24.40;;;13.15;;
30048;SDS011;16879;50.852;15.602;2022-11-06T14:08:01;16.85;;;10.43;;
30048;SDS011;16879;50.852;15.602;2022-11-06T14:10:34;50.35;;;30.70;;
30048;SDS011;16879;50.852;15.602;2022-11-06T14:13:02;139.32;;;91.60;;
30048;SDS011;16879;50.852;15.602;2022-11-06T14:15:32;99.78;;;63.65;;
30048;SDS011;16879;50.852;15.602;2022-11-06T14:18:02;102.10;;;58.13;;
30048;SDS011;16879;50.852;15.602;2022-11-06T14:28:32;94.07;;;46.03;;
30048;SDS011;16879;50.852;15.602;2022-11-06T14:31:01;132.13;;;58.30;;
30048;SDS011;16879;50.852;15.602;2022-11-06T14:36:12;73.07;;;35.97;;
30048;SDS011;16879;50.852;15.602;2022-11-06T14:38:38;60.47;;;30.85;;
30048;SDS011;16879;50.852;15.602;2022-11-06T14:41:52;53.58;;;30.05;;
30048;SDS011;16879;50.852;15.602;2022-11-06T14:44:32;52.83;;;28.83;;
30048;SDS011;16879;50.852;15.602;2022-11-06T14:46:57;66.80;;;35.67;;
30048;SDS011;16879;50.852;15.602;2022-11-06T14:51:59;80.80;;;45.92;;
30048;SDS011;16879;50.852;15.602;2022-11-06T14:54:28;95.75;;;56.05;;
30048;SDS011;16879;50.852;15.602;2022-11-06T14:56:54;77.97;;;44.20;;
30048;SDS011;16879;50.852;15.602;2022-11-06T14:59:35;59.83;;;35.42;;
30048;SDS011;16879;50.852;15.602;2022-11-06T15:02:27;65.03;;;41.65;;
30048;SDS011;16879;50.852;15.602;2022-11-06T15:05:18;65.55;;;43.55;;
30048;SDS011;16879;50.852;15.602;2022-11-06T15:07:56;44.80;;;28.45;;
30048;SDS011;16879;50.852;15.602;2022-11-06T15:11:00;45.55;;;26.00;;
30048;SDS011;16879;50.852;15.602;2022-11-06T15:13:26;37.75;;;25.20;;
30048;SDS011;16879;50.852;15.602;2022-11-06T15:15:57;37.88;;;23.95;;
30048;SDS011;16879;50.852;15.602;2022-11-06T15:18:27;32.60;;;23.00;;
30048;SDS011;16879;50.852;15.602;2022-11-06T15:20:58;34.90;;;24.00;;
30048;SDS011;16879;50.852;15.602;2022-11-06T15:23:46;37.70;;;26.33;;
30048;SDS011;16879;50.852;15.602;2022-11-06T15:26:51;36.83;;;24.65;;
30048;SDS011;16879;50.852;15.602;2022-11-06T15:29:30;42.90;;;29.13;;
30048;SDS011;16879;50.852;15.602;2022-11-06T15:32:41;47.70;;;30.58;;
30048;SDS011;16879;50.852;15.602;2022-11-06T15:35:24;53.30;;;34.00;;
30048;SDS011;16879;50.852;15.602;2022-11-06T15:45:41;49.47;;;30.77;;
30048;SDS011;16879;50.852;15.602;2022-11-06T15:48:19;40.70;;;25.92;;
30048;SDS011;16879;50.852;15.602;2022-11-06T15:53:25;29.90;;;19.85;;
30048;SDS011;16879;50.852;15.602;2022-11-06T15:58:37;38.42;;;24.92;;
30048;SDS011;16879;50.852;15.602;2022-11-06T16:03:51;32.28;;;22.15;;
30048;SDS011;16879;50.852;15.602;2022-11-06T16:06:42;32.15;;;20.50;;
30048;SDS011;16879;50.852;15.602;2022-11-06T16:09:28;32.35;;;20.48;;
30048;SDS011;16879;50.852;15.602;2022-11-06T16:11:54;27.70;;;19.92;;
30048;SDS011;16879;50.852;15.602;2022-11-06T16:14:22;33.80;;;21.27;;
30048;SDS011;16879;50.852;15.602;2022-11-06T16:16:49;33.38;;;21.08;;
30048;SDS011;16879;50.852;15.602;2022-11-06T16:21:57;29.00;;;20.67;;
30048;SDS011;16879;50.852;15.602;2022-11-06T16:24:38;39.00;;;24.33;;
30048;SDS011;16879;50.852;15.602;2022-11-06T16:27:10;38.75;;;26.10;;
30048;SDS011;16879;50.852;15.602;2022-11-06T16:29:44;34.80;;;23.65;;
30048;SDS011;16879;50.852;15.602;2022-11-06T16:32:18;33.92;;;24.05;;
30048;SDS011;16879;50.852;15.602;2022-11-06T16:34:50;53.53;;;34.45;;
30048;SDS011;16879;50.852;15.602;2022-11-06T16:43:28;53.17;;;33.17;;
30048;SDS011;16879;50.852;15.602;2022-11-06T16:46:01;44.78;;;25.88;;
30048;SDS011;16879;50.852;15.602;2022-11-06T16:51:05;38.58;;;24.90;;
30048;SDS011;16879;50.852;15.602;2022-11-06T16:53:59;33.55;;;21.98;;
30048;SDS011;16879;50.852;15.602;2022-11-06T16:56:29;111.45;;;55.35;;
30048;SDS011;16879;50.852;15.602;2022-11-06T16:59:00;156.05;;;76.93;;
30048;SDS011;16879;50.852;15.602;2022-11-06T17:01:35;109.90;;;61.10;;
30048;SDS011;16879;50.852;15.602;2022-11-06T17:04:08;63.08;;;37.35;;
30048;SDS011;16879;50.852;15.602;2022-11-06T17:06:45;53.00;;;34.00;;
30048;SDS011;16879;50.852;15.602;2022-11-06T17:11:58;54.00;;;31.80;;
30048;SDS011;16879;50.852;15.602;2022-11-06T17:14:26;74.70;;;44.08;;
30048;SDS011;16879;50.852;15.602;2022-11-06T17:16:56;53.78;;;30.75;;
30048;SDS011;16879;50.852;15.602;2022-11-06T17:19:25;68.45;;;41.50;;
30048;SDS011;16879;50.852;15.602;2022-11-06T17:21:52;64.38;;;37.80;;
30048;SDS011;16879;50.852;15.602;2022-11-06T17:24:19;44.58;;;27.00;;
30048;SDS011;16879;50.852;15.602;2022-11-06T17:26:46;59.13;;;32.63;;
30048;SDS011;16879;50.852;15.602;2022-11-06T17:29:14;69.45;;;38.88;;
30048;SDS011;16879;50.852;15.602;2022-11-06T17:31:40;78.18;;;39.92;;